Ameagle, West Virginia
Current Conditions -  °F | °C
As of 3:51 AM on Sunday 26 Oct 2014 (Local Time) from KBKW Reporting Station
Few Clouds Few Clouds  
Wind Chill: 57°   Ceiling: Unl
Heat Index: 57°   Visibility: 10mi
Dew Point: 50°   Wind: 14mph
Humidity: 77%   Direction: 310°NW
Pressure: 29.9"   Gusts: 23mph
Location:  37.95°N, 81.42°W
Report Text: KBKW 260751Z AUTO 31012G20KT 10SM FEW023 14/10 A2990 RMK AO2 SLP107 T01390100 TSNO
Loading
Personal Weather Stations






























Interactive Weather Map New forecast layout! Learn more

10-Day Weather Forecast

Advertisements
Track Severe Weather on mobile